createdAt,value
2022-09-28T00:02:21.875Z,9.40
2022-09-28T00:04:48.620Z,9.50
2022-09-28T00:07:15.260Z,9.40
2022-09-28T00:09:41.902Z,9.40
2022-09-28T00:12:08.720Z,9.30
2022-09-28T00:14:35.350Z,9.40
2022-09-28T00:17:01.978Z,9.40
2022-09-28T00:19:28.646Z,9.40
2022-09-28T00:21:55.306Z,9.50
2022-09-28T00:24:26.662Z,9.50
2022-09-28T00:26:55.687Z,9.50
2022-09-28T00:29:42.644Z,9.50
2022-09-28T00:32:13.931Z,9.50
2022-09-28T00:34:43.174Z,9.50
2022-09-28T00:37:10.063Z,9.50
2022-09-28T00:39:38.371Z,9.50
2022-09-28T00:42:11.279Z,9.40
2022-09-28T00:44:46.813Z,9.40
2022-09-28T00:47:13.454Z,9.40
2022-09-28T00:49:43.401Z,9.50
2022-09-28T00:52:12.882Z,9.40
2022-09-28T00:54:39.687Z,9.40
2022-09-28T00:57:06.399Z,9.50
2022-09-28T00:59:33.742Z,9.50
2022-09-28T01:02:00.922Z,9.40
2022-09-28T01:04:30.010Z,9.40
2022-09-28T01:06:57.918Z,9.40
2022-09-28T01:09:25.422Z,9.50
2022-09-28T01:11:52.079Z,9.50
2022-09-28T01:14:19.521Z,9.50
2022-09-28T01:16:50.564Z,9.50
2022-09-28T01:19:32.396Z,9.50
2022-09-28T01:22:08.161Z,9.50
2022-09-28T01:24:47.817Z,9.40
2022-09-28T01:27:23.775Z,9.40
2022-09-28T01:29:55.264Z,9.40
2022-09-28T01:32:21.915Z,9.40
2022-09-28T01:34:51.568Z,9.40
2022-09-28T01:37:20.696Z,9.40
2022-09-28T01:39:48.631Z,9.40
2022-09-28T01:42:27.347Z,9.40
2022-09-28T01:44:56.746Z,9.50
2022-09-28T01:47:24.600Z,9.40
2022-09-28T01:50:23.750Z,9.40
2022-09-28T01:52:54.488Z,9.40
2022-09-28T01:55:21.122Z,9.40
2022-09-28T01:57:55.089Z,9.40
2022-09-28T02:00:23.683Z,9.40
2022-09-28T02:02:56.998Z,9.40
2022-09-28T02:05:27.647Z,9.40
2022-09-28T02:07:54.827Z,9.40
2022-09-28T02:10:26.495Z,9.40
2022-09-28T02:12:59.380Z,9.40
2022-09-28T02:15:40.535Z,9.40
2022-09-28T02:18:08.092Z,9.40
2022-09-28T02:20:36.388Z,9.30
2022-09-28T02:23:04.633Z,9.20
2022-09-28T02:25:34.858Z,9.30
2022-09-28T02:28:01.814Z,9.30
2022-09-28T02:30:32.565Z,9.30
2022-09-28T02:33:02.580Z,9.30
2022-09-28T02:35:29.498Z,9.40
2022-09-28T02:37:56.584Z,9.40
2022-09-28T02:40:29.571Z,9.40
2022-09-28T02:43:02.364Z,9.30
2022-09-28T02:45:29.046Z,9.30
2022-09-28T02:48:14.479Z,9.20
2022-09-28T02:50:51.785Z,9.20
2022-09-28T02:53:21.530Z,9.20
2022-09-28T02:56:06.853Z,9.10
2022-09-28T02:58:56.932Z,9.10
2022-09-28T03:01:29.730Z,9.00
2022-09-28T03:04:11.096Z,9.00
2022-09-28T03:06:37.758Z,8.90
2022-09-28T03:09:06.616Z,8.90
2022-09-28T03:11:37.001Z,8.80
2022-09-28T03:14:04.208Z,8.90
2022-09-28T03:16:32.185Z,8.90
2022-09-28T03:18:59.023Z,8.90
2022-09-28T03:21:25.651Z,8.90
2022-09-28T03:23:52.374Z,8.90
2022-09-28T03:26:19.770Z,8.90
2022-09-28T03:28:46.601Z,8.90
2022-09-28T03:31:13.302Z,8.90
2022-09-28T03:33:39.994Z,8.90
2022-09-28T03:36:08.677Z,8.90
2022-09-28T03:38:35.408Z,8.90
2022-09-28T03:41:02.090Z,8.90
2022-09-28T03:43:30.085Z,8.90
2022-09-28T03:45:58.363Z,8.80
2022-09-28T03:48:31.187Z,8.90
2022-09-28T03:50:59.762Z,8.80
2022-09-28T03:53:26.570Z,8.80
2022-09-28T03:55:53.645Z,8.80
2022-09-28T03:58:21.058Z,8.80
2022-09-28T04:00:48.436Z,8.80
2022-09-28T04:03:15.360Z,8.80
2022-09-28T04:05:49.014Z,8.80
2022-09-28T04:08:15.680Z,8.80
2022-09-28T04:10:42.697Z,8.80
2022-09-28T04:13:09.360Z,8.80
2022-09-28T04:15:37.947Z,8.70
2022-09-28T04:18:05.549Z,8.70
2022-09-28T04:20:33.247Z,8.70
2022-09-28T04:22:59.891Z,8.70
2022-09-28T04:25:26.520Z,8.60
2022-09-28T04:28:12.080Z,8.50
2022-09-28T04:30:38.820Z,8.40
2022-09-28T04:33:05.476Z,8.40
2022-09-28T04:35:32.086Z,8.30
2022-09-28T04:37:58.830Z,8.20
2022-09-28T04:40:25.509Z,8.20
2022-09-28T04:42:56.158Z,8.20
2022-09-28T04:45:23.545Z,8.20
2022-09-28T04:47:50.215Z,8.20
2022-09-28T04:50:17.191Z,8.30
2022-09-28T04:52:43.902Z,8.30
2022-09-28T04:55:13.943Z,8.30
2022-09-28T04:57:40.869Z,8.30
2022-09-28T05:00:08.619Z,8.30
2022-09-28T05:02:35.434Z,8.40
2022-09-28T05:05:02.219Z,8.50
2022-09-28T05:07:29.123Z,8.50
2022-09-28T05:09:55.928Z,8.50
2022-09-28T05:12:22.615Z,8.50
2022-09-28T05:14:49.351Z,8.60
2022-09-28T05:17:15.998Z,8.60
2022-09-28T05:19:43.088Z,8.60
2022-09-28T05:22:14.695Z,8.60
2022-09-28T05:24:41.718Z,8.60
2022-09-28T05:27:08.641Z,8.60
2022-09-28T05:29:35.252Z,8.60
2022-09-28T05:32:02.060Z,8.60
2022-09-28T05:34:29.226Z,8.70
2022-09-28T05:36:55.898Z,8.70
2022-09-28T05:39:22.551Z,8.70
2022-09-28T05:41:49.233Z,8.80
2022-09-28T05:44:15.908Z,8.90
2022-09-28T05:46:42.607Z,8.90
2022-09-28T05:49:09.269Z,9.00
2022-09-28T05:51:35.932Z,9.00
2022-09-28T05:54:05.953Z,9.00
2022-09-28T05:56:33.075Z,9.00
2022-09-28T05:58:59.814Z,9.00
2022-09-28T06:01:26.631Z,9.00
2022-09-28T06:03:53.380Z,9.00
2022-09-28T06:06:22.893Z,9.10
2022-09-28T06:08:50.085Z,9.10
2022-09-28T06:11:16.754Z,9.20
2022-09-28T06:13:43.372Z,9.20
2022-09-28T06:16:14.317Z,9.20
2022-09-28T06:18:41.556Z,9.20
2022-09-28T06:21:10.840Z,9.30
2022-09-28T06:23:40.311Z,9.30
2022-09-28T06:26:07.217Z,9.40
2022-09-28T06:28:33.897Z,9.40
2022-09-28T06:31:01.050Z,9.50
2022-09-28T06:33:27.816Z,9.50
2022-09-28T06:35:54.527Z,9.60
2022-09-28T06:38:21.207Z,9.60
2022-09-28T06:40:48.117Z,9.60
2022-09-28T06:43:15.718Z,9.70
2022-09-28T06:45:42.847Z,9.80
2022-09-28T06:48:10.563Z,9.80
2022-09-28T06:50:39.477Z,9.80
2022-09-28T06:53:09.327Z,9.90
2022-09-28T06:55:38.936Z,9.90
2022-09-28T06:58:06.941Z,9.90
2022-09-28T07:00:35.059Z,10.00
2022-09-28T07:03:02.574Z,10.00
2022-09-28T07:05:29.826Z,10.00
2022-09-28T07:07:56.789Z,10.00
2022-09-28T07:10:23.902Z,10.00
2022-09-28T07:12:51.473Z,10.00
2022-09-28T07:15:18.895Z,10.00
2022-09-28T07:17:59.085Z,10.10
2022-09-28T07:20:26.630Z,10.10
2022-09-28T07:22:54.348Z,10.10
2022-09-28T07:25:21.548Z,10.10
2022-09-28T07:27:48.231Z,10.10
2022-09-28T07:30:16.267Z,10.10
2022-09-28T07:32:44.990Z,10.10
2022-09-28T07:35:11.730Z,10.10
2022-09-28T07:37:38.341Z,10.10
2022-09-28T07:40:23.752Z,10.10
2022-09-28T07:42:51.033Z,10.20
2022-09-28T07:45:17.871Z,10.20
2022-09-28T07:47:45.880Z,10.10
2022-09-28T07:50:12.758Z,10.10
2022-09-28T07:52:39.395Z,10.10
2022-09-28T07:55:07.443Z,10.20
2022-09-28T07:57:35.361Z,10.30
2022-09-28T08:00:02.525Z,10.30
2022-09-28T08:02:31.111Z,10.40
2022-09-28T08:04:59.799Z,10.40
2022-09-28T08:07:26.541Z,10.50
2022-09-28T08:09:53.220Z,10.50
2022-09-28T08:12:21.103Z,10.60
2022-09-28T08:14:48.455Z,10.60
2022-09-28T08:17:15.784Z,10.60
2022-09-28T08:20:01.153Z,10.70
2022-09-28T08:22:30.329Z,10.70
2022-09-28T08:24:56.982Z,10.70
2022-09-28T08:27:23.817Z,10.70
2022-09-28T08:29:50.438Z,10.70
2022-09-28T08:32:18.381Z,10.70
2022-09-28T08:34:45.060Z,10.70
2022-09-28T08:37:12.517Z,10.70
2022-09-28T08:39:39.270Z,10.70
2022-09-28T08:42:13.003Z,10.70
2022-09-28T08:44:41.605Z,10.80
2022-09-28T08:47:35.127Z,10.80
2022-09-28T08:50:02.521Z,10.90
2022-09-28T08:52:32.373Z,10.90
2022-09-28T08:55:02.517Z,11.00
2022-09-28T08:57:30.917Z,11.00
2022-09-28T08:59:59.707Z,11.20
2022-09-28T09:02:34.077Z,11.30
2022-09-28T09:05:02.724Z,11.40
2022-09-28T09:07:35.639Z,11.50
2022-09-28T09:10:14.782Z,11.60
2022-09-28T09:12:50.611Z,11.50
2022-09-28T09:15:20.446Z,11.50
2022-09-28T09:17:57.093Z,11.40
2022-09-28T09:20:29.886Z,11.50
2022-09-28T09:23:00.795Z,11.60
2022-09-28T09:25:35.352Z,11.70
2022-09-28T09:28:13.747Z,11.80
2022-09-28T09:31:13.012Z,11.70
2022-09-28T09:33:46.662Z,11.90
2022-09-28T09:36:19.402Z,12.00
2022-09-28T09:38:46.089Z,12.00
2022-09-28T09:41:20.751Z,12.20
2022-09-28T09:43:47.398Z,12.40
2022-09-28T09:46:24.862Z,12.40
2022-09-28T09:49:14.541Z,12.60
2022-09-28T09:51:44.177Z,12.70
2022-09-28T09:54:19.888Z,12.70
2022-09-28T09:56:53.631Z,12.70
2022-09-28T09:59:24.298Z,12.60
2022-09-28T10:01:52.017Z,12.40
2022-09-28T10:04:27.291Z,12.20
2022-09-28T10:06:57.613Z,12.20
2022-09-28T10:09:25.547Z,12.20
2022-09-28T10:11:53.126Z,12.30
2022-09-28T10:14:24.137Z,12.40
2022-09-28T10:16:55.687Z,12.50
2022-09-28T10:19:28.606Z,12.60
2022-09-28T10:21:55.361Z,12.60
2022-09-28T10:24:42.575Z,12.60
2022-09-28T10:27:17.229Z,12.70
2022-09-28T10:30:04.265Z,12.80
2022-09-28T10:32:41.081Z,12.80
2022-09-28T10:35:19.931Z,12.70
2022-09-28T10:37:52.281Z,13.00
2022-09-28T10:40:31.063Z,13.20
2022-09-28T10:43:02.062Z,13.40
2022-09-28T10:45:32.131Z,13.30
2022-09-28T10:48:00.843Z,13.20
2022-09-28T10:50:27.884Z,13.10
2022-09-28T10:53:09.775Z,13.10
2022-09-28T10:55:37.057Z,13.10
2022-09-28T10:58:22.946Z,13.00
2022-09-28T11:00:49.871Z,13.00
2022-09-28T11:03:22.478Z,13.00
2022-09-28T11:06:00.748Z,13.00
2022-09-28T11:08:29.508Z,12.90
2022-09-28T11:11:07.522Z,12.90
2022-09-28T11:13:41.617Z,12.80
2022-09-28T11:16:08.509Z,12.80
2022-09-28T11:18:35.499Z,13.10
2022-09-28T11:21:12.554Z,13.30
2022-09-28T11:23:42.120Z,13.40
2022-09-28T11:26:09.588Z,13.40
2022-09-28T11:28:37.150Z,13.40
2022-09-28T11:31:07.190Z,13.50
2022-09-28T11:33:35.877Z,13.60
2022-09-28T11:36:23.269Z,13.60
2022-09-28T11:39:09.333Z,13.70
2022-09-28T11:41:36.041Z,13.80
2022-09-28T11:44:13.258Z,13.80
2022-09-28T11:46:53.111Z,13.80
2022-09-28T11:49:19.714Z,13.90
2022-09-28T11:51:48.498Z,14.00
2022-09-28T11:54:34.243Z,14.10
2022-09-28T11:57:02.866Z,14.20
2022-09-28T11:59:34.271Z,14.20
2022-09-28T12:02:03.928Z,14.20
2022-09-28T12:04:35.415Z,14.00
2022-09-28T12:07:21.780Z,13.90
2022-09-28T12:09:51.475Z,14.00
2022-09-28T12:12:28.322Z,14.00
2022-09-28T12:14:57.198Z,14.00
2022-09-28T12:17:25.896Z,14.00
2022-09-28T12:19:55.648Z,13.80
2022-09-28T12:22:24.315Z,13.70
2022-09-28T12:24:52.715Z,13.60
2022-09-28T12:27:38.707Z,13.60
2022-09-28T12:30:12.593Z,13.50
2022-09-28T12:32:43.072Z,13.40
2022-09-28T12:35:14.214Z,13.30
2022-09-28T12:37:43.897Z,13.20
2022-09-28T12:40:26.938Z,13.10
2022-09-28T12:43:17.644Z,13.00
2022-09-28T12:46:12.418Z,13.00
2022-09-28T12:49:21.651Z,13.10
2022-09-28T12:51:39.466Z,13.20
2022-09-28T12:54:14.923Z,13.20
2022-09-28T12:56:47.119Z,13.00
2022-09-28T12:59:20.186Z,12.90
2022-09-28T13:01:46.929Z,13.00
2022-09-28T13:04:26.554Z,12.90
2022-09-28T13:07:02.901Z,12.90
2022-09-28T13:09:34.734Z,12.80
2022-09-28T13:12:05.079Z,12.70
2022-09-28T13:14:41.045Z,12.70
2022-09-28T13:17:25.724Z,12.80
2022-09-28T13:20:04.229Z,12.80
2022-09-28T13:22:44.392Z,12.80
2022-09-28T13:25:18.900Z,12.80
2022-09-28T13:27:48.117Z,12.60
2022-09-28T13:30:15.577Z,12.50
2022-09-28T13:32:43.847Z,12.50
2022-09-28T13:35:20.928Z,12.30
2022-09-28T13:37:48.737Z,12.30
2022-09-28T13:40:15.386Z,12.20
2022-09-28T13:42:45.081Z,12.10
2022-09-28T13:45:20.908Z,11.90
2022-09-28T13:47:49.425Z,11.90
2022-09-28T13:50:36.322Z,11.80
2022-09-28T13:53:05.959Z,11.80
2022-09-28T13:55:35.861Z,11.80
2022-09-28T13:58:20.655Z,11.80
2022-09-28T14:00:51.566Z,11.80
2022-09-28T14:03:41.142Z,11.80
2022-09-28T14:06:20.140Z,11.80
2022-09-28T14:09:05.758Z,11.80
2022-09-28T14:11:34.272Z,11.80
2022-09-28T14:14:02.042Z,11.80
2022-09-28T14:16:32.693Z,11.80
2022-09-28T14:19:18.432Z,11.80
2022-09-28T14:21:45.105Z,11.80
2022-09-28T14:24:11.816Z,11.80
2022-09-28T14:26:58.203Z,11.90
2022-09-28T14:29:28.671Z,11.90
2022-09-28T14:32:03.950Z,11.90
2022-09-28T14:34:50.890Z,11.90
2022-09-28T14:37:40.270Z,12.00
2022-09-28T14:40:49.549Z,11.90
2022-09-28T14:43:27.801Z,11.90
2022-09-28T14:46:18.917Z,11.90
2022-09-28T14:48:50.270Z,11.90
2022-09-28T14:51:34.920Z,12.00
2022-09-28T14:54:03.981Z,11.90
2022-09-28T14:56:33.809Z,11.90
2022-09-28T14:59:00.774Z,11.80
2022-09-28T15:01:27.782Z,11.90
2022-09-28T15:03:55.471Z,11.90
2022-09-28T15:06:23.050Z,11.80
2022-09-28T15:08:49.742Z,11.80
2022-09-28T15:11:24.310Z,11.80
2022-09-28T15:13:55.559Z,11.80
2022-09-28T15:16:23.484Z,11.80
2022-09-28T15:18:56.356Z,11.90
2022-09-28T15:21:23.782Z,11.90
2022-09-28T15:23:50.897Z,11.90
2022-09-28T15:26:27.470Z,11.90
2022-09-28T15:28:54.652Z,11.90
2022-09-28T15:31:22.680Z,11.90
2022-09-28T15:34:08.068Z,11.80
2022-09-28T15:36:38.309Z,11.80
2022-09-28T15:39:23.646Z,11.80
2022-09-28T15:41:50.939Z,11.70
2022-09-28T15:44:37.859Z,11.60
2022-09-28T15:47:04.499Z,11.60
2022-09-28T15:49:41.350Z,11.60
2022-09-28T15:52:20.995Z,11.60
2022-09-28T15:54:47.990Z,11.60
2022-09-28T15:57:33.056Z,11.60
2022-09-28T16:00:00.799Z,11.50
2022-09-28T16:02:27.795Z,11.50
2022-09-28T16:04:55.772Z,11.40
2022-09-28T16:07:24.351Z,11.30
2022-09-28T16:10:06.460Z,11.30
2022-09-28T16:12:48.578Z,11.30
2022-09-28T16:15:18.251Z,11.30
2022-09-28T16:17:49.572Z,11.30
2022-09-28T16:20:22.542Z,11.30
2022-09-28T16:22:49.603Z,11.30
2022-09-28T16:25:18.041Z,11.30
2022-09-28T16:27:45.729Z,11.30
2022-09-28T16:30:21.335Z,11.20
2022-09-28T16:32:52.927Z,11.10
2022-09-28T16:35:25.565Z,11.10
2022-09-28T16:38:10.503Z,11.10
2022-09-28T16:40:41.952Z,11.00
2022-09-28T16:43:09.325Z,11.00
2022-09-28T16:45:37.577Z,10.90
2022-09-28T16:48:04.451Z,10.90
2022-09-28T16:50:31.182Z,10.90
2022-09-28T16:53:19.455Z,10.80
2022-09-28T16:55:46.783Z,10.80
2022-09-28T16:58:13.424Z,10.80
2022-09-28T17:00:42.804Z,10.80
2022-09-28T17:03:12.637Z,10.80
2022-09-28T17:05:40.153Z,10.70
2022-09-28T17:08:06.940Z,10.70
2022-09-28T17:10:56.018Z,10.70
2022-09-28T17:13:31.457Z,10.70
2022-09-28T17:15:58.541Z,10.70
2022-09-28T17:18:25.709Z,10.60
2022-09-28T17:20:55.050Z,10.60
2022-09-28T17:23:21.879Z,10.50
2022-09-28T17:25:49.044Z,10.60
2022-09-28T17:28:23.382Z,10.50
2022-09-28T17:30:50.166Z,10.50
2022-09-28T17:33:17.090Z,10.50
2022-09-28T17:35:44.291Z,10.40
2022-09-28T17:38:11.948Z,10.40
2022-09-28T17:40:38.871Z,10.40
2022-09-28T17:43:06.210Z,10.40
2022-09-28T17:45:33.924Z,10.40
2022-09-28T17:48:01.169Z,10.50
2022-09-28T17:50:29.758Z,10.50
2022-09-28T17:52:58.058Z,10.50
2022-09-28T17:55:28.585Z,10.60
2022-09-28T17:57:55.734Z,10.50
2022-09-28T18:00:23.444Z,10.50
2022-09-28T18:02:51.087Z,10.50
2022-09-28T18:05:19.545Z,10.50
2022-09-28T18:07:47.678Z,10.50
2022-09-28T18:10:16.277Z,10.50
2022-09-28T18:12:43.532Z,10.40
2022-09-28T18:15:10.873Z,10.40
2022-09-28T18:17:38.011Z,10.40
2022-09-28T18:20:05.770Z,10.40
2022-09-28T18:22:32.446Z,10.40
2022-09-28T18:24:59.539Z,10.40
2022-09-28T18:27:27.840Z,10.40
2022-09-28T18:29:54.614Z,10.40
2022-09-28T18:32:23.444Z,10.40
2022-09-28T18:34:53.472Z,10.40
2022-09-28T18:37:26.625Z,10.40
2022-09-28T18:39:57.096Z,10.40
2022-09-28T18:42:26.537Z,10.40
2022-09-28T18:44:56.034Z,10.40
2022-09-28T18:47:24.739Z,10.40
2022-09-28T18:49:52.726Z,10.30
2022-09-28T18:52:21.811Z,10.30
2022-09-28T18:54:52.354Z,10.30
2022-09-28T18:57:22.184Z,10.30
2022-09-28T18:59:51.806Z,10.30
2022-09-28T19:02:20.246Z,10.30
2022-09-28T19:04:50.104Z,10.30
2022-09-28T19:07:17.456Z,10.30
2022-09-28T19:09:46.224Z,10.20
2022-09-28T19:12:14.713Z,10.20
2022-09-28T19:14:43.918Z,10.10
2022-09-28T19:17:13.427Z,10.00
2022-09-28T19:19:44.133Z,10.00
2022-09-28T19:22:13.818Z,10.00
2022-09-28T19:24:41.572Z,10.00
2022-09-28T19:27:10.553Z,10.00
2022-09-28T19:29:39.752Z,10.00
2022-09-28T19:32:06.625Z,9.90
2022-09-28T19:34:33.341Z,9.90
2022-09-28T19:37:03.798Z,9.90
2022-09-28T19:39:31.036Z,9.90
2022-09-28T19:41:59.748Z,9.90
2022-09-28T19:44:27.678Z,9.90
2022-09-28T19:46:55.628Z,9.90
2022-09-28T19:49:23.202Z,9.90
2022-09-28T19:52:11.426Z,9.90
2022-09-28T19:54:38.116Z,9.90
2022-09-28T19:57:08.788Z,9.90
2022-09-28T19:59:36.704Z,9.90
2022-09-28T20:02:04.671Z,9.90
2022-09-28T20:04:31.346Z,9.80
2022-09-28T20:06:57.996Z,9.90
2022-09-28T20:09:24.687Z,9.90
2022-09-28T20:11:51.929Z,9.90
2022-09-28T20:14:18.911Z,9.90
2022-09-28T20:16:48.273Z,9.90
2022-09-28T20:19:15.246Z,9.90
2022-09-28T20:21:41.940Z,9.90
2022-09-28T20:24:10.916Z,9.90
2022-09-28T20:26:37.982Z,9.90
2022-09-28T20:29:05.733Z,9.80
2022-09-28T20:31:32.463Z,9.80
2022-09-28T20:33:59.294Z,9.80
2022-09-28T20:36:26.003Z,9.80
2022-09-28T20:38:53.774Z,9.80
2022-09-28T20:41:21.957Z,9.80
2022-09-28T20:43:53.319Z,9.80
2022-09-28T20:46:21.939Z,9.80
2022-09-28T20:48:52.231Z,9.70
2022-09-28T20:51:19.854Z,9.70
2022-09-28T20:53:47.482Z,9.80
2022-09-28T20:56:17.683Z,9.70
2022-09-28T20:58:44.511Z,9.70
2022-09-28T21:01:16.330Z,9.70
2022-09-28T21:03:50.823Z,9.80
2022-09-28T21:06:18.703Z,9.80
2022-09-28T21:08:45.901Z,9.70
2022-09-28T21:11:13.362Z,9.70
2022-09-28T21:13:43.181Z,9.80
2022-09-28T21:16:10.984Z,9.70
2022-09-28T21:18:38.721Z,9.70
2022-09-28T21:21:07.112Z,9.70
2022-09-28T21:23:34.362Z,9.60
2022-09-28T21:26:05.646Z,9.50
2022-09-28T21:28:32.868Z,9.50
2022-09-28T21:30:59.854Z,9.50
2022-09-28T21:33:26.650Z,9.50
2022-09-28T21:35:53.383Z,9.40
2022-09-28T21:38:20.167Z,9.40
2022-09-28T21:40:47.150Z,9.40
2022-09-28T21:43:13.949Z,9.30
2022-09-28T21:45:40.725Z,9.30
2022-09-28T21:48:07.474Z,9.30
2022-09-28T21:50:34.279Z,9.20
2022-09-28T21:53:01.857Z,9.30
2022-09-28T21:55:29.257Z,9.20
2022-09-28T21:57:56.785Z,9.20
2022-09-28T22:00:24.415Z,9.20
2022-09-28T22:02:51.276Z,9.20
2022-09-28T22:05:19.217Z,9.20
2022-09-28T22:07:45.922Z,9.20
2022-09-28T22:10:13.801Z,9.20
2022-09-28T22:12:40.630Z,9.30
2022-09-28T22:15:07.529Z,9.30
2022-09-28T22:17:34.191Z,9.30
2022-09-28T22:20:00.990Z,9.30
2022-09-28T22:22:29.282Z,9.30
2022-09-28T22:24:56.190Z,9.30
2022-09-28T22:27:24.068Z,9.30
2022-09-28T22:29:51.106Z,9.20
2022-09-28T22:32:17.839Z,9.30
2022-09-28T22:34:44.493Z,9.30
2022-09-28T22:37:11.163Z,9.30
2022-09-28T22:39:38.082Z,9.30
2022-09-28T22:42:04.877Z,9.30
2022-09-28T22:44:31.572Z,9.30
2022-09-28T22:46:58.239Z,9.30
2022-09-28T22:49:25.062Z,9.20
2022-09-28T22:51:52.682Z,9.30
2022-09-28T22:54:19.454Z,9.30
2022-09-28T22:56:46.283Z,9.30
2022-09-28T22:59:12.990Z,9.30
2022-09-28T23:01:39.760Z,9.30
2022-09-28T23:04:06.773Z,9.40
2022-09-28T23:06:33.591Z,9.40
2022-09-28T23:09:00.848Z,9.40
2022-09-28T23:11:28.060Z,9.40
2022-09-28T23:13:56.772Z,9.40
2022-09-28T23:16:25.598Z,9.40
2022-09-28T23:18:53.271Z,9.30
2022-09-28T23:21:21.506Z,9.40
2022-09-28T23:23:53.360Z,9.30
2022-09-28T23:26:21.655Z,9.30
2022-09-28T23:28:48.368Z,9.30
2022-09-28T23:31:16.522Z,9.30
2022-09-28T23:33:43.245Z,9.30
2022-09-28T23:36:09.944Z,9.30
2022-09-28T23:38:36.598Z,9.30
2022-09-28T23:41:03.524Z,9.30
2022-09-28T23:43:30.163Z,9.20
2022-09-28T23:45:56.906Z,9.20
2022-09-28T23:48:23.727Z,9.20
2022-09-28T23:50:50.394Z,9.20
2022-09-28T23:53:17.014Z,9.20
2022-09-28T23:55:43.722Z,9.10
2022-09-28T23:58:10.722Z,9.20
